Time;durP1;ratioP1;P1;durP2;ratioP2;P2;SDS_P1;SDS_P2;PMS_P1;PMS_P2;Temp;Humidity;BMP_temperature;BMP_pressure;BME280_temperature;BME280_humidity;BME280_pressure;Samples;Min_cycle;Max_cycle;Signal;HPM_P1;HPM_P2
2023/06/07 00:02:48;;;;;;;;;;;;;;;;;;5132138;27;20254;-81
2023/06/07 00:05:14;;;;;;;;;;;;;;;;;;5114941;28;19935;-81
2023/06/07 00:07:40;;;;;;;;;;;;;;;;;;5112298;28;19927;-81
2023/06/07 00:10:06;;;;;;;;;;;;;;;;;;5060436;28;19920;-81
2023/06/07 00:12:32;;;;;;;;;;;;;;;;;;5060858;28;20399;-82
2023/06/07 00:15:00;;;;;;;;;;;;;;;;;;5077258;28;19924;-81
2023/06/07 00:17:27;;;;;;;;;;;;;;;;;;5065897;28;20281;-81
2023/06/07 00:19:53;;;;;;;;;;;;;;;;;;5114060;28;20019;-80
2023/06/07 00:22:19;;;;;;;;;;;;;;;;;;5110193;28;19959;-81
2023/06/07 00:24:45;;;;;;;;;;;;;;;;;;5114754;28;20011;-81
2023/06/07 00:27:11;;;;;;;;;;;;;;;;;;5114736;28;19980;-81
2023/06/07 00:29:37;;;;;;;;;;;;;;;;;;5114314;28;19920;-81
2023/06/07 00:32:02;;;;;;;;;;;;;;;;;;5114275;28;19927;-81
2023/06/07 00:34:28;;;;;;;;;;;;;;;;;;5098103;28;19924;-81
2023/06/07 00:36:54;;;;;;;;;;;;;;;;;;5094007;28;19924;-81
2023/06/07 00:39:22;;;;;;;;;;;;;;;;;;5094049;28;19924;-81
2023/06/07 00:41:48;;;;;;;;;;;;;;;;;;5076859;28;19924;-81
2023/06/07 00:44:16;;;;;;;;;;;;;;;;;;5093647;28;20338;-81
2023/06/07 00:46:42;;;;;;;;;;;;;;;;;;5111668;28;19919;-81
2023/06/07 00:49:09;;;;;;;;;;;;;;;;;;5114141;28;19985;-81
2023/06/07 00:51:35;;;;;;;;;;;;;;;;;;5113636;28;19920;-81
2023/06/07 00:54:00;;;;;;;;;;;;;;;;;;5097135;28;20414;-81
2023/06/07 00:56:27;;;;;;;;;;;;;;;;;;5096983;28;19927;-81
2023/06/07 00:58:53;;;;;;;;;;;;;;;;;;5113693;28;19964;-81
2023/06/07 01:01:18;;;;;;;;;;;;;;;;;;5113588;28;19920;-81
2023/06/07 01:03:44;;;;;;;;;;;;;;;;;;5113782;28;19920;-81
2023/06/07 01:06:10;;;;;;;;;;;;;;;;;;5113909;28;19927;-81
2023/06/07 01:08:37;;;;;;;;;;;;;;;;;;5113809;28;19923;-81
2023/06/07 01:11:03;;;;;;;;;;;;;;;;;;5113584;28;20364;-81
2023/06/07 01:13:29;;;;;;;;;;;;;;;;;;5113815;28;19927;-81
2023/06/07 01:15:55;;;;;;;;;;;;;;;;;;5113828;28;19926;-81
2023/06/07 01:18:24;;;;;;;;;;;;;;;;;;5113651;28;19962;-81
2023/06/07 01:21:05;;;;;;;;;;;;;;;;;;5112769;28;19962;-81
2023/06/07 01:23:32;;;;;;;;;;;;;;;;;;5113577;28;19966;-81
2023/06/07 01:25:58;;;;;;;;;;;;;;;;;;5113516;28;19973;-81
2023/06/07 01:28:24;;;;;;;;;;;;;;;;;;5113501;28;19920;-81
2023/06/07 01:30:50;;;;;;;;;;;;;;;;;;5113219;28;19923;-81
2023/06/07 01:33:16;;;;;;;;;;;;;;;;;;5095610;28;19965;-81
2023/06/07 01:35:44;;;;;;;;;;;;;;;;;;5113266;28;20291;-82
2023/06/07 01:38:10;;;;;;;;;;;;;;;;;;5096536;28;20388;-81
2023/06/07 01:40:36;;;;;;;;;;;;;;;;;;5112754;28;19928;-81
2023/06/07 01:43:01;;;;;;;;;;;;;;;;;;5113395;28;19963;-81
2023/06/07 01:45:27;;;;;;;;;;;;;;;;;;5112183;28;19965;-81
2023/06/07 01:47:53;;;;;;;;;;;;;;;;;;5071733;28;19919;-81
2023/06/07 01:50:19;;;;;;;;;;;;;;;;;;5112582;28;19920;-81
2023/06/07 01:52:45;;;;;;;;;;;;;;;;;;5112950;28;19923;-81
2023/06/07 01:55:11;;;;;;;;;;;;;;;;;;5112969;28;19977;-81
2023/06/07 01:57:38;;;;;;;;;;;;;;;;;;5095676;28;19919;-81
2023/06/07 02:00:05;;;;;;;;;;;;;;;;;;5078074;28;19928;-81
2023/06/07 02:02:31;;;;;;;;;;;;;;;;;;5112820;28;19927;-81
2023/06/07 02:04:57;;;;;;;;;;;;;;;;;;5112050;28;19920;-81
2023/06/07 02:07:23;;;;;;;;;;;;;;;;;;5112965;28;19945;-81
2023/06/07 02:09:49;;;;;;;;;;;;;;;;;;5112237;28;19920;-81
2023/06/07 02:12:15;;;;;;;;;;;;;;;;;;5112833;28;19993;-81
2023/06/07 02:14:42;;;;;;;;;;;;;;;;;;5083985;28;19920;-81
2023/06/07 02:17:07;;;;;;;;;;;;;;;;;;5058941;28;19928;-81
2023/06/07 02:19:34;;;;;;;;;;;;;;;;;;5075332;28;20320;-81
2023/06/07 02:22:00;;;;;;;;;;;;;;;;;;5058529;28;19920;-81
2023/06/07 02:24:27;;;;;;;;;;;;;;;;;;5058859;28;19924;-81
2023/06/07 02:26:57;;;;;;;;;;;;;;;;;;5075489;28;19924;-81
2023/06/07 02:29:23;;;;;;;;;;;;;;;;;;5075399;28;19959;-82
2023/06/07 02:31:49;;;;;;;;;;;;;;;;;;5075520;28;19966;-81
2023/06/07 02:34:15;;;;;;;;;;;;;;;;;;5058551;28;19969;-81
2023/06/07 02:36:41;;;;;;;;;;;;;;;;;;5075211;28;20300;-81
2023/06/07 02:39:07;;;;;;;;;;;;;;;;;;5075216;28;19962;-81
2023/06/07 02:41:33;;;;;;;;;;;;;;;;;;5058312;28;19920;-81
2023/06/07 02:43:59;;;;;;;;;;;;;;;;;;5058981;28;20396;-81
2023/06/07 02:46:25;;;;;;;;;;;;;;;;;;5112716;28;19924;-81
2023/06/07 02:48:51;;;;;;;;;;;;;;;;;;5112346;28;19927;-81
2023/06/07 02:51:17;;;;;;;;;;;;;;;;;;5111858;28;19926;-81
2023/06/07 02:53:44;;;;;;;;;;;;;;;;;;5112429;28;19920;-82
2023/06/07 02:56:10;;;;;;;;;;;;;;;;;;5112339;28;19927;-81
2023/06/07 02:58:36;;;;;;;;;;;;;;;;;;5116145;28;19928;-81
2023/06/07 03:01:07;;;;;;;;;;;;;;;;;;5115860;28;19971;-81
2023/06/07 03:03:33;;;;;;;;;;;;;;;;;;5116605;28;19923;-81
2023/06/07 03:05:59;;;;;;;;;;;;;;;;;;5116202;28;19969;-81
2023/06/07 03:08:25;;;;;;;;;;;;;;;;;;5115636;28;20311;-81
2023/06/07 03:10:51;;;;;;;;;;;;;;;;;;5115696;28;19927;-81
2023/06/07 03:13:17;;;;;;;;;;;;;;;;;;5098840;28;19920;-83
2023/06/07 03:15:45;;;;;;;;;;;;;;;;;;5115972;28;20364;-81
2023/06/07 03:18:15;;;;;;;;;;;;;;;;;;5115949;28;19920;-81
2023/06/07 03:20:41;;;;;;;;;;;;;;;;;;5115412;28;20014;-81
2023/06/07 03:23:07;;;;;;;;;;;;;;;;;;5115882;28;20004;-81
2023/06/07 03:25:33;;;;;;;;;;;;;;;;;;5098836;28;19920;-81
2023/06/07 03:27:59;;;;;;;;;;;;;;;;;;5115706;28;19939;-81
2023/06/07 03:30:25;;;;;;;;;;;;;;;;;;5111991;28;20604;-81
2023/06/07 03:32:51;;;;;;;;;;;;;;;;;;5088589;28;19927;-81
2023/06/07 03:35:17;;;;;;;;;;;;;;;;;;5090471;28;19920;-81
2023/06/07 03:37:43;;;;;;;;;;;;;;;;;;5068267;28;20015;-81
2023/06/07 03:40:09;;;;;;;;;;;;;;;;;;5094147;28;20449;-81
2023/06/07 03:42:35;;;;;;;;;;;;;;;;;;5078055;28;19948;-81
2023/06/07 03:45:02;;;;;;;;;;;;;;;;;;5077998;28;19962;-81
2023/06/07 03:47:28;;;;;;;;;;;;;;;;;;5064567;28;19926;-81
2023/06/07 03:49:53;;;;;;;;;;;;;;;;;;5094803;28;20485;-81
2023/06/07 03:52:19;;;;;;;;;;;;;;;;;;5089588;28;19920;-81
2023/06/07 03:54:45;;;;;;;;;;;;;;;;;;5074659;28;19959;-81
2023/06/07 03:57:11;;;;;;;;;;;;;;;;;;5100804;28;20545;-81
2023/06/07 03:59:37;;;;;;;;;;;;;;;;;;5077523;28;19931;-81
2023/06/07 04:02:03;;;;;;;;;;;;;;;;;;5093666;28;20321;-81
2023/06/07 04:04:32;;;;;;;;;;;;;;;;;;5078084;28;19969;-81
2023/06/07 04:06:58;;;;;;;;;;;;;;;;;;5091182;28;19920;-81
2023/06/07 04:11:53;;;;;;;;;;;;;;;;;;5109409;28;20020;-81
2023/06/07 04:14:19;;;;;;;;;;;;;;;;;;5092109;28;20375;-81
2023/06/07 04:16:45;;;;;;;;;;;;;;;;;;5085914;28;19925;-83
2023/06/07 04:19:11;;;;;;;;;;;;;;;;;;5083029;28;20383;-81
2023/06/07 04:21:37;;;;;;;;;;;;;;;;;;5092941;28;19928;-81
2023/06/07 04:24:04;;;;;;;;;;;;;;;;;;5093458;28;19927;-81
2023/06/07 04:26:31;;;;;;;;;;;;;;;;;;5059980;28;20403;-81
2023/06/07 04:28:57;;;;;;;;;;;;;;;;;;5083288;28;20007;-82
2023/06/07 04:31:29;;;;;;;;;;;;;;;;;;5090360;28;19978;-82
2023/06/07 04:33:57;;;;;;;;;;;;;;;;;;5094358;28;20019;-81
2023/06/07 04:36:25;;;;;;;;;;;;;;;;;;5076352;28;19928;-82
2023/06/07 04:38:51;;;;;;;;;;;;;;;;;;5082527;28;19921;-82
2023/06/07 04:41:17;;;;;;;;;;;;;;;;;;5089570;28;19928;-82
2023/06/07 04:43:48;;;;;;;;;;;;;;;;;;5088892;28;19924;-82
2023/06/07 04:46:15;;;;;;;;;;;;;;;;;;5092779;28;19973;-81
2023/06/07 04:48:43;;;;;;;;;;;;;;;;;;5059556;28;19928;-83
2023/06/07 04:51:09;;;;;;;;;;;;;;;;;;5059044;28;19978;-81
2023/06/07 04:53:36;;;;;;;;;;;;;;;;;;5059474;28;19920;-81
2023/06/07 04:56:03;;;;;;;;;;;;;;;;;;5075108;28;19920;-81
2023/06/07 04:58:42;;;;;;;;;;;;;;;;;;5109521;28;20342;-81
2023/06/07 05:01:10;;;;;;;;;;;;;;;;;;5059009;28;19949;-81
2023/06/07 05:03:36;;;;;;;;;;;;;;;;;;5075932;28;19924;-81
2023/06/07 05:06:04;;;;;;;;;;;;;;;;;;5090688;28;19928;-82
2023/06/07 05:08:29;;;;;;;;;;;;;;;;;;5083769;28;20415;-81
2023/06/07 05:10:55;;;;;;;;;;;;;;;;;;5092273;28;19924;-81
2023/06/07 05:13:21;;;;;;;;;;;;;;;;;;5083471;28;19921;-81
2023/06/07 05:15:50;;;;;;;;;;;;;;;;;;5075135;28;19971;-81
2023/06/07 05:18:18;;;;;;;;;;;;;;;;;;5058970;28;19924;-81
2023/06/07 05:20:44;;;;;;;;;;;;;;;;;;5058018;28;19955;-81
2023/06/07 05:23:15;;;;;;;;;;;;;;;;;;5058844;28;20296;-81
2023/06/07 05:25:42;;;;;;;;;;;;;;;;;;5058556;28;19931;-81
2023/06/07 05:28:08;;;;;;;;;;;;;;;;;;5058700;28;19920;-80
2023/06/07 05:30:34;;;;;;;;;;;;;;;;;;5074769;28;19924;-81
2023/06/07 05:33:00;;;;;;;;;;;;;;;;;;5058500;28;19920;-82
2023/06/07 05:35:26;;;;;;;;;;;;;;;;;;5058683;28;20387;-82
2023/06/07 05:37:52;;;;;;;;;;;;;;;;;;5058487;28;19926;-81
2023/06/07 05:40:18;;;;;;;;;;;;;;;;;;5074611;28;19924;-82
2023/06/07 05:42:44;;;;;;;;;;;;;;;;;;5075178;28;19920;-82
2023/06/07 05:45:10;;;;;;;;;;;;;;;;;;5074822;28;19924;-81
2023/06/07 05:47:36;;;;;;;;;;;;;;;;;;5058349;28;19931;-82
2023/06/07 05:50:03;;;;;;;;;;;;;;;;;;5058536;28;19927;-82
2023/06/07 05:52:29;;;;;;;;;;;;;;;;;;5058800;28;19920;-82
2023/06/07 05:54:57;;;;;;;;;;;;;;;;;;5058660;28;20053;-82
2023/06/07 05:57:23;;;;;;;;;;;;;;;;;;5075143;28;19927;-83
2023/06/07 05:59:49;;;;;;;;;;;;;;;;;;5057808;28;19928;-83
2023/06/07 06:02:16;;;;;;;;;;;;;;;;;;5058425;28;20331;-82
2023/06/07 06:04:45;;;;;;;;;;;;;;;;;;5093781;28;19928;-80
2023/06/07 06:07:12;;;;;;;;;;;;;;;;;;5057094;28;19920;-81
2023/06/07 06:09:41;;;;;;;;;;;;;;;;;;5058279;28;19925;-83
2023/06/07 06:12:07;;;;;;;;;;;;;;;;;;5058327;28;20373;-82
2023/06/07 06:14:33;;;;;;;;;;;;;;;;;;5075095;28;19920;-81
2023/06/07 06:16:59;;;;;;;;;;;;;;;;;;5058236;28;19931;-82
2023/06/07 06:19:27;;;;;;;;;;;;;;;;;;5074740;28;20330;-82
2023/06/07 06:21:55;;;;;;;;;;;;;;;;;;5057381;28;20082;-84
2023/06/07 06:24:21;;;;;;;;;;;;;;;;;;5058161;28;19965;-85
2023/06/07 06:26:47;;;;;;;;;;;;;;;;;;5058066;28;19920;-85
2023/06/07 06:29:13;;;;;;;;;;;;;;;;;;5074578;28;20400;-84
2023/06/07 06:31:39;;;;;;;;;;;;;;;;;;5058021;28;19920;-85
2023/06/07 06:34:07;;;;;;;;;;;;;;;;;;5112684;28;20014;-85
2023/06/07 06:36:36;;;;;;;;;;;;;;;;;;5079661;28;19928;-87
2023/06/07 06:39:03;;;;;;;;;;;;;;;;;;5062047;28;19924;-87
2023/06/07 06:41:30;;;;;;;;;;;;;;;;;;5061687;28;19920;-85
2023/06/07 06:43:56;;;;;;;;;;;;;;;;;;5061807;28;19924;-84
2023/06/07 06:46:22;;;;;;;;;;;;;;;;;;5061650;28;20606;-86
2023/06/07 06:48:48;;;;;;;;;;;;;;;;;;5061611;28;19921;-84
2023/06/07 06:51:13;;;;;;;;;;;;;;;;;;5061256;28;19927;-82
2023/06/07 06:53:39;;;;;;;;;;;;;;;;;;5061574;28;19927;-89
2023/06/07 06:56:06;;;;;;;;;;;;;;;;;;5095564;28;19920;-85
2023/06/07 06:58:34;;;;;;;;;;;;;;;;;;5095445;28;20379;-88
2023/06/07 07:01:01;;;;;;;;;;;;;;;;;;5077568;28;19972;-89
2023/06/07 07:03:27;;;;;;;;;;;;;;;;;;5078216;28;20011;-87
2023/06/07 07:05:52;;;;;;;;;;;;;;;;;;5061932;28;20391;-90
2023/06/07 07:08:18;;;;;;;;;;;;;;;;;;5062066;28;19969;-88
2023/06/07 07:13:30;;;;;;;;;;;;;;;;;;5074155;28;20296;-87
2023/06/07 07:15:56;;;;;;;;;;;;;;;;;;5077842;28;19920;-86
2023/06/07 07:18:22;;;;;;;;;;;;;;;;;;5078066;28;20449;-87
2023/06/07 07:20:47;;;;;;;;;;;;;;;;;;5060933;28;20007;-88
2023/06/07 07:23:13;;;;;;;;;;;;;;;;;;5078214;28;19920;-88
2023/06/07 07:25:40;;;;;;;;;;;;;;;;;;5061786;28;20027;-89
2023/06/07 07:28:06;;;;;;;;;;;;;;;;;;5095669;28;19977;-89
2023/06/07 07:30:32;;;;;;;;;;;;;;;;;;5060971;28;19928;-88
2023/06/07 07:32:58;;;;;;;;;;;;;;;;;;5095245;28;19920;-92
2023/06/07 07:35:24;;;;;;;;;;;;;;;;;;5061903;28;20007;-88
2023/06/07 07:37:50;;;;;;;;;;;;;;;;;;5112534;28;19920;-88
2023/06/07 07:40:17;;;;;;;;;;;;;;;;;;5060899;28;19977;-87
2023/06/07 07:42:43;;;;;;;;;;;;;;;;;;5111742;28;19920;-86
2023/06/07 07:45:08;;;;;;;;;;;;;;;;;;5061132;28;20737;-89
2023/06/07 07:47:34;;;;;;;;;;;;;;;;;;5060764;28;20373;-84
2023/06/07 07:50:00;;;;;;;;;;;;;;;;;;5060413;28;19971;-84
2023/06/07 07:52:26;;;;;;;;;;;;;;;;;;5060114;28;19939;-84
2023/06/07 07:54:54;;;;;;;;;;;;;;;;;;5060367;28;20316;-86
2023/06/07 07:57:20;;;;;;;;;;;;;;;;;;5060782;28;19920;-86
2023/06/07 07:59:46;;;;;;;;;;;;;;;;;;5060233;28;20449;-86
2023/06/07 08:02:12;;;;;;;;;;;;;;;;;;5060316;28;19924;-83
2023/06/07 08:04:38;;;;;;;;;;;;;;;;;;5060636;28;19920;-84
2023/06/07 08:07:03;;;;;;;;;;;;;;;;;;5060480;28;20537;-85
2023/06/07 08:09:30;;;;;;;;;;;;;;;;;;5077116;28;19924;-88
2023/06/07 08:11:55;;;;;;;;;;;;;;;;;;5093877;28;19927;-84
2023/06/07 08:14:21;;;;;;;;;;;;;;;;;;5093888;28;19920;-85
2023/06/07 08:16:48;;;;;;;;;;;;;;;;;;5094307;28;19935;-85
2023/06/07 08:19:13;;;;;;;;;;;;;;;;;;5093816;28;19920;-86
2023/06/07 08:21:43;;;;;;;;;;;;;;;;;;5110634;28;19927;-87
2023/06/07 08:24:09;;;;;;;;;;;;;;;;;;5094468;28;19955;-88
2023/06/07 08:26:35;;;;;;;;;;;;;;;;;;5094301;28;19965;-90
2023/06/07 08:29:01;;;;;;;;;;;;;;;;;;5094114;28;20388;-90
2023/06/07 08:31:28;;;;;;;;;;;;;;;;;;5094043;28;19924;-91
2023/06/07 08:33:54;;;;;;;;;;;;;;;;;;5094306;28;19927;-90
2023/06/07 08:36:20;;;;;;;;;;;;;;;;;;5077200;28;19943;-89
2023/06/07 08:38:46;;;;;;;;;;;;;;;;;;5094143;28;19927;-91
2023/06/07 08:41:12;;;;;;;;;;;;;;;;;;5093595;28;19924;-91
2023/06/07 08:43:40;;;;;;;;;;;;;;;;;;5076989;28;19920;-87
2023/06/07 08:46:06;;;;;;;;;;;;;;;;;;5059764;28;20304;-88
2023/06/07 08:48:33;;;;;;;;;;;;;;;;;;5060157;28;19920;-88
2023/06/07 08:50:59;;;;;;;;;;;;;;;;;;5059238;28;19920;-91
2023/06/07 08:53:25;;;;;;;;;;;;;;;;;;5110565;28;20003;-88
2023/06/07 08:55:51;;;;;;;;;;;;;;;;;;5059735;28;20032;-93
2023/06/07 08:58:17;;;;;;;;;;;;;;;;;;5077201;28;19920;-94
2023/06/07 09:00:43;;;;;;;;;;;;;;;;;;5059934;28;19977;-92
2023/06/07 09:03:09;;;;;;;;;;;;;;;;;;5060382;28;19924;-84
2023/06/07 09:05:35;;;;;;;;;;;;;;;;;;5059231;28;19931;-83
2023/06/07 09:08:02;;;;;;;;;;;;;;;;;;5075525;28;20003;-84
2023/06/07 09:10:28;;;;;;;;;;;;;;;;;;5058398;28;19927;-85
2023/06/07 09:12:55;;;;;;;;;;;;;;;;;;5109853;28;20007;-83
2023/06/07 09:15:21;;;;;;;;;;;;;;;;;;5058886;28;19966;-82
2023/06/07 09:17:46;;;;;;;;;;;;;;;;;;5059186;28;19928;-83
2023/06/07 09:20:13;;;;;;;;;;;;;;;;;;5058413;28;19928;-83
2023/06/07 09:22:39;;;;;;;;;;;;;;;;;;5059091;28;19920;-83
2023/06/07 09:25:05;;;;;;;;;;;;;;;;;;5058921;28;19920;-83
2023/06/07 09:27:31;;;;;;;;;;;;;;;;;;5059319;28;19981;-83
2023/06/07 09:29:57;;;;;;;;;;;;;;;;;;5058520;28;19924;-82
2023/06/07 09:32:26;;;;;;;;;;;;;;;;;;5058362;28;19920;-83
2023/06/07 09:34:53;;;;;;;;;;;;;;;;;;5058680;28;19920;-82
2023/06/07 09:37:21;;;;;;;;;;;;;;;;;;5058526;28;20006;-84
2023/06/07 09:39:47;;;;;;;;;;;;;;;;;;5058063;28;19931;-84
2023/06/07 09:42:13;;;;;;;;;;;;;;;;;;5109319;28;20365;-83
2023/06/07 09:44:39;;;;;;;;;;;;;;;;;;5058781;28;19927;-82
2023/06/07 09:47:05;;;;;;;;;;;;;;;;;;5074967;28;19920;-84
2023/06/07 09:49:34;;;;;;;;;;;;;;;;;;5074976;28;19921;-83
2023/06/07 09:52:00;;;;;;;;;;;;;;;;;;5091537;28;19920;-82
2023/06/07 09:54:27;;;;;;;;;;;;;;;;;;5091789;28;19928;-85
2023/06/07 09:56:53;;;;;;;;;;;;;;;;;;5091829;28;19974;-82
2023/06/07 09:59:19;;;;;;;;;;;;;;;;;;5091552;28;20404;-82
2023/06/07 10:01:45;;;;;;;;;;;;;;;;;;5091292;28;19931;-83
2023/06/07 10:04:11;;;;;;;;;;;;;;;;;;5058101;28;19920;-82
2023/06/07 10:06:38;;;;;;;;;;;;;;;;;;5107986;28;20407;-81
2023/06/07 10:09:04;;;;;;;;;;;;;;;;;;5058051;28;19950;-82
2023/06/07 10:11:30;;;;;;;;;;;;;;;;;;5057990;28;19920;-82
2023/06/07 10:13:56;;;;;;;;;;;;;;;;;;5108676;28;19924;-82
2023/06/07 10:16:22;;;;;;;;;;;;;;;;;;5057978;28;19920;-82
2023/06/07 10:18:48;;;;;;;;;;;;;;;;;;5107930;28;19927;-83
2023/06/07 10:21:15;;;;;;;;;;;;;;;;;;5090639;28;19930;-82
2023/06/07 10:23:41;;;;;;;;;;;;;;;;;;5091424;28;19920;-82
2023/06/07 10:26:07;;;;;;;;;;;;;;;;;;5091599;28;19947;-82
2023/06/07 10:28:33;;;;;;;;;;;;;;;;;;5091785;28;19927;-82
2023/06/07 10:31:03;;;;;;;;;;;;;;;;;;5091161;28;19965;-82
2023/06/07 10:33:29;;;;;;;;;;;;;;;;;;5091504;28;19920;-83
2023/06/07 10:35:55;;;;;;;;;;;;;;;;;;5091957;28;20324;-82
2023/06/07 10:38:21;;;;;;;;;;;;;;;;;;5091449;28;19953;-81
2023/06/07 10:40:47;;;;;;;;;;;;;;;;;;5073916;28;19928;-82
2023/06/07 10:43:13;;;;;;;;;;;;;;;;;;5074473;28;19928;-82
2023/06/07 10:45:39;;;;;;;;;;;;;;;;;;5057908;28;20364;-82
2023/06/07 10:48:05;;;;;;;;;;;;;;;;;;5057641;28;20003;-82
2023/06/07 10:50:31;;;;;;;;;;;;;;;;;;5057512;28;20388;-81
2023/06/07 10:52:57;;;;;;;;;;;;;;;;;;5057852;28;19920;-82
2023/06/07 10:55:23;;;;;;;;;;;;;;;;;;5057760;28;19920;-82
2023/06/07 10:57:49;;;;;;;;;;;;;;;;;;5058095;28;19920;-82
2023/06/07 11:00:15;;;;;;;;;;;;;;;;;;5057338;28;19931;-81
2023/06/07 11:02:41;;;;;;;;;;;;;;;;;;5058088;28;19920;-82
2023/06/07 11:05:08;;;;;;;;;;;;;;;;;;5058193;28;19924;-82
2023/06/07 11:07:38;;;;;;;;;;;;;;;;;;5058049;28;19931;-82
2023/06/07 11:10:04;;;;;;;;;;;;;;;;;;5074278;28;20422;-83
2023/06/07 11:12:30;;;;;;;;;;;;;;;;;;5068146;28;19924;-83
2023/06/07 11:14:56;;;;;;;;;;;;;;;;;;5070945;28;20403;-85
2023/06/07 11:17:22;;;;;;;;;;;;;;;;;;5071177;28;19985;-86
2023/06/07 11:19:48;;;;;;;;;;;;;;;;;;5074246;28;19928;-85
2023/06/07 11:22:14;;;;;;;;;;;;;;;;;;5074321;28;19934;-85
2023/06/07 11:24:40;;;;;;;;;;;;;;;;;;5074615;28;20050;-86
2023/06/07 11:27:06;;;;;;;;;;;;;;;;;;5074587;28;19920;-86
2023/06/07 11:29:32;;;;;;;;;;;;;;;;;;5084655;28;19927;-85
2023/06/07 11:31:58;;;;;;;;;;;;;;;;;;5060993;28;20003;-85
2023/06/07 11:34:24;;;;;;;;;;;;;;;;;;5061108;28;19920;-85
2023/06/07 11:36:52;;;;;;;;;;;;;;;;;;5061349;28;20410;-85
2023/06/07 11:39:20;;;;;;;;;;;;;;;;;;5060842;28;20403;-86
2023/06/07 11:41:57;;;;;;;;;;;;;;;;;;5060651;28;19920;-84
2023/06/07 11:44:23;;;;;;;;;;;;;;;;;;5077357;28;19920;-84
2023/06/07 11:46:50;;;;;;;;;;;;;;;;;;5077403;28;19920;-84
2023/06/07 11:49:16;;;;;;;;;;;;;;;;;;5094475;28;20331;-82
2023/06/07 11:51:43;;;;;;;;;;;;;;;;;;5093736;28;19920;-82
2023/06/07 11:54:09;;;;;;;;;;;;;;;;;;5094182;28;19963;-82
2023/06/07 11:56:37;;;;;;;;;;;;;;;;;;5060594;28;20345;-82
2023/06/07 11:59:04;;;;;;;;;;;;;;;;;;5111103;28;20339;-81
2023/06/07 12:01:31;;;;;;;;;;;;;;;;;;5060007;28;19928;-83
2023/06/07 12:03:57;;;;;;;;;;;;;;;;;;5060461;28;20342;-85
2023/06/07 12:06:23;;;;;;;;;;;;;;;;;;5060403;28;20014;-86
2023/06/07 12:08:49;;;;;;;;;;;;;;;;;;5060143;28;19946;-85
2023/06/07 12:11:16;;;;;;;;;;;;;;;;;;5060050;28;20021;-86
2023/06/07 12:13:42;;;;;;;;;;;;;;;;;;5060256;28;19920;-85
2023/06/07 12:16:08;;;;;;;;;;;;;;;;;;5059980;28;20394;-85
2023/06/07 12:18:35;;;;;;;;;;;;;;;;;;5076859;28;20270;-86
2023/06/07 12:21:00;;;;;;;;;;;;;;;;;;5076180;28;19939;-87
2023/06/07 12:23:26;;;;;;;;;;;;;;;;;;5060046;28;19924;-89
2023/06/07 12:25:52;;;;;;;;;;;;;;;;;;5060481;28;19955;-86
2023/06/07 12:28:18;;;;;;;;;;;;;;;;;;5060237;28;19927;-83
2023/06/07 12:30:44;;;;;;;;;;;;;;;;;;5058816;28;19920;-84
2023/06/07 12:33:10;;;;;;;;;;;;;;;;;;5076734;28;19943;-83
2023/06/07 12:35:39;;;;;;;;;;;;;;;;;;5076419;28;19924;-84
2023/06/07 12:38:05;;;;;;;;;;;;;;;;;;5093231;28;19924;-82
2023/06/07 12:40:38;;;;;;;;;;;;;;;;;;5059186;28;20081;-81
2023/06/07 12:43:05;;;;;;;;;;;;;;;;;;5058676;28;19972;-84
2023/06/07 12:45:30;;;;;;;;;;;;;;;;;;5093219;28;19920;-84
2023/06/07 12:47:56;;;;;;;;;;;;;;;;;;5058652;28;19932;-85
2023/06/07 12:50:22;;;;;;;;;;;;;;;;;;5075823;28;20377;-84
2023/06/07 12:52:48;;;;;;;;;;;;;;;;;;5059512;28;20458;-84
2023/06/07 12:55:14;;;;;;;;;;;;;;;;;;5059477;28;19974;-84
2023/06/07 12:57:40;;;;;;;;;;;;;;;;;;5059861;28;19920;-86
2023/06/07 13:00:06;;;;;;;;;;;;;;;;;;5075383;28;19935;-86
2023/06/07 13:02:34;;;;;;;;;;;;;;;;;;5076160;28;19920;-86
2023/06/07 13:05:00;;;;;;;;;;;;;;;;;;5058394;28;19930;-85
2023/06/07 13:07:26;;;;;;;;;;;;;;;;;;5059307;28;19989;-86
2023/06/07 13:09:52;;;;;;;;;;;;;;;;;;5058846;28;19920;-85
2023/06/07 13:12:18;;;;;;;;;;;;;;;;;;5059058;28;20301;-84
2023/06/07 13:14:43;;;;;;;;;;;;;;;;;;5059009;28;19967;-85
2023/06/07 13:17:10;;;;;;;;;;;;;;;;;;5092959;28;20323;-84
2023/06/07 13:19:36;;;;;;;;;;;;;;;;;;5075331;28;19924;-87
2023/06/07 13:22:02;;;;;;;;;;;;;;;;;;5075814;28;20403;-88
2023/06/07 13:24:29;;;;;;;;;;;;;;;;;;5092534;28;19920;-88
2023/06/07 13:26:54;;;;;;;;;;;;;;;;;;5092503;28;19920;-87
2023/06/07 13:29:20;;;;;;;;;;;;;;;;;;5092346;28;20292;-84
2023/06/07 13:31:46;;;;;;;;;;;;;;;;;;5054187;28;19974;-83
2023/06/07 13:34:12;;;;;;;;;;;;;;;;;;5089001;28;19920;-82
2023/06/07 13:36:38;;;;;;;;;;;;;;;;;;5089223;28;19999;-83
2023/06/07 13:39:04;;;;;;;;;;;;;;;;;;5089093;28;19924;-83
2023/06/07 13:41:30;;;;;;;;;;;;;;;;;;5106843;28;20296;-83
2023/06/07 13:44:09;;;;;;;;;;;;;;;;;;5058191;28;19924;-86
2023/06/07 13:46:35;;;;;;;;;;;;;;;;;;5058468;28;19966;-84
2023/06/07 13:49:09;;;;;;;;;;;;;;;;;;5108955;28;19920;-86
2023/06/07 13:51:35;;;;;;;;;;;;;;;;;;5091619;28;19969;-84
2023/06/07 13:54:01;;;;;;;;;;;;;;;;;;5091904;28;20006;-85
2023/06/07 13:56:28;;;;;;;;;;;;;;;;;;5058516;28;20404;-85
2023/06/07 13:58:53;;;;;;;;;;;;;;;;;;5058138;28;20288;-85
2023/06/07 14:01:19;;;;;;;;;;;;;;;;;;5057909;28;19924;-85
2023/06/07 14:03:45;;;;;;;;;;;;;;;;;;5109246;28;19920;-88
2023/06/07 14:06:11;;;;;;;;;;;;;;;;;;5058717;28;19924;-86
2023/06/07 14:08:38;;;;;;;;;;;;;;;;;;5058608;28;19931;-85
2023/06/07 14:11:05;;;;;;;;;;;;;;;;;;5058123;28;20396;-85
2023/06/07 14:13:30;;;;;;;;;;;;;;;;;;5092073;28;20019;-85
2023/06/07 14:15:56;;;;;;;;;;;;;;;;;;5091669;28;20019;-83
2023/06/07 14:18:22;;;;;;;;;;;;;;;;;;5091687;28;19920;-84
2023/06/07 14:20:48;;;;;;;;;;;;;;;;;;5057698;28;19925;-84
2023/06/07 14:23:14;;;;;;;;;;;;;;;;;;5108441;28;20324;-88
2023/06/07 14:25:47;;;;;;;;;;;;;;;;;;5057961;28;20464;-90
2023/06/07 14:28:13;;;;;;;;;;;;;;;;;;5058680;28;19920;-89
2023/06/07 14:30:39;;;;;;;;;;;;;;;;;;5057984;28;19926;-90
2023/06/07 14:33:05;;;;;;;;;;;;;;;;;;5092327;28;19946;-91
2023/06/07 14:35:31;;;;;;;;;;;;;;;;;;5058841;28;19920;-91
2023/06/07 14:37:57;;;;;;;;;;;;;;;;;;5059212;28;20301;-91
2023/06/07 14:40:23;;;;;;;;;;;;;;;;;;5058333;28;19931;-91
2023/06/07 14:42:49;;;;;;;;;;;;;;;;;;5058399;28;19977;-88
2023/06/07 14:45:15;;;;;;;;;;;;;;;;;;5092200;28;19942;-91
2023/06/07 14:47:41;;;;;;;;;;;;;;;;;;5059410;28;19920;-92
2023/06/07 14:50:07;;;;;;;;;;;;;;;;;;5059630;28;20760;-93
2023/06/07 14:52:33;;;;;;;;;;;;;;;;;;5104198;28;20290;-92
2023/06/07 14:54:59;;;;;;;;;;;;;;;;;;5100461;28;19924;-94
2023/06/07 14:57:25;;;;;;;;;;;;;;;;;;5068732;28;20385;-93
2023/06/07 14:59:51;;;;;;;;;;;;;;;;;;5062433;28;20216;-93
2023/06/07 15:02:17;;;;;;;;;;;;;;;;;;5063303;28;19963;-93
2023/06/07 15:04:43;;;;;;;;;;;;;;;;;;5079847;28;20011;-95
2023/06/07 15:07:09;;;;;;;;;;;;;;;;;;5063113;28;19924;-93
2023/06/07 15:09:35;;;;;;;;;;;;;;;;;;5079858;28;19924;-93
2023/06/07 15:12:01;;;;;;;;;;;;;;;;;;5079727;28;20013;-92
2023/06/07 15:14:27;;;;;;;;;;;;;;;;;;5062790;28;20389;-94
2023/06/07 15:16:53;;;;;;;;;;;;;;;;;;5113355;28;19920;-93
2023/06/07 15:19:19;;;;;;;;;;;;;;;;;;5063009;28;19924;-93
2023/06/07 15:21:47;;;;;;;;;;;;;;;;;;5061420;28;20052;-90
2023/06/07 15:24:13;;;;;;;;;;;;;;;;;;5070676;28;19949;-92
2023/06/07 15:26:40;;;;;;;;;;;;;;;;;;5085282;28;19989;-92
2023/06/07 15:29:06;;;;;;;;;;;;;;;;;;5065135;28;20351;-90
2023/06/07 15:31:32;;;;;;;;;;;;;;;;;;5069550;28;19946;-92
2023/06/07 15:33:58;;;;;;;;;;;;;;;;;;5099803;28;20074;-93
2023/06/07 15:36:24;;;;;;;;;;;;;;;;;;5063014;28;20014;-91
2023/06/07 15:38:50;;;;;;;;;;;;;;;;;;5095454;28;20352;-93
2023/06/07 15:41:16;;;;;;;;;;;;;;;;;;5068876;28;19924;-92
2023/06/07 15:43:43;;;;;;;;;;;;;;;;;;5068399;28;19926;-89
2023/06/07 15:46:09;;;;;;;;;;;;;;;;;;5090520;28;19927;-91
2023/06/07 15:48:35;;;;;;;;;;;;;;;;;;5117278;27;19928;-91
2023/06/07 15:51:01;;;;;;;;;;;;;;;;;;5087872;28;19920;-93
2023/06/07 15:53:27;;;;;;;;;;;;;;;;;;5065587;28;19930;-91
2023/06/07 15:55:52;;;;;;;;;;;;;;;;;;5061346;28;19928;-91
2023/06/07 15:58:18;;;;;;;;;;;;;;;;;;5060683;28;19970;-93
2023/06/07 16:00:48;;;;;;;;;;;;;;;;;;5060704;28;20365;-92
2023/06/07 16:03:13;;;;;;;;;;;;;;;;;;5060935;28;20349;-91
2023/06/07 16:05:39;;;;;;;;;;;;;;;;;;5076272;28;19959;-91
2023/06/07 16:08:05;;;;;;;;;;;;;;;;;;5061160;28;19920;-90
2023/06/07 16:10:31;;;;;;;;;;;;;;;;;;5060148;28;19946;-88
2023/06/07 16:12:57;;;;;;;;;;;;;;;;;;5077573;28;20291;-92
2023/06/07 16:15:23;;;;;;;;;;;;;;;;;;5061286;28;19920;-92
2023/06/07 16:17:49;;;;;;;;;;;;;;;;;;5111586;28;19927;-91
2023/06/07 16:20:15;;;;;;;;;;;;;;;;;;5059925;28;19924;-91
2023/06/07 16:22:41;;;;;;;;;;;;;;;;;;5060436;28;19924;-91
2023/06/07 16:25:07;;;;;;;;;;;;;;;;;;5060520;28;19959;-90
2023/06/07 16:27:33;;;;;;;;;;;;;;;;;;5060106;28;20408;-91
2023/06/07 16:29:59;;;;;;;;;;;;;;;;;;5059918;28;19920;-90
2023/06/07 16:32:24;;;;;;;;;;;;;;;;;;5060133;28;20258;-90
2023/06/07 16:34:50;;;;;;;;;;;;;;;;;;5060091;28;19928;-91
2023/06/07 16:37:16;;;;;;;;;;;;;;;;;;5060393;28;20430;-91
2023/06/07 16:39:44;;;;;;;;;;;;;;;;;;5060264;28;19975;-91
2023/06/07 16:42:10;;;;;;;;;;;;;;;;;;5059989;28;19927;-92
2023/06/07 16:44:36;;;;;;;;;;;;;;;;;;5076744;28;19920;-91
2023/06/07 16:47:01;;;;;;;;;;;;;;;;;;5059714;28;19928;-91